Time;durP1;ratioP1;P1;durP2;ratioP2;P2;SDS_P1;SDS_P2;PMS_P1;PMS_P2;Temp;Humidity;BMP_temperature;BMP_pressure;BME280_temperature;BME280_humidity;BME280_pressure;Samples;Min_cycle;Max_cycle;Signal;HPM_P1;HPM_P2
2021/12/25 00:01:55;;;;;;;16.80;13.13;;;5.00;99.90;;;;;;4849456;29;20036;-88
2021/12/25 00:04:23;;;;;;;17.27;13.05;;;4.90;99.90;;;;;;4864554;29;20044;-88
2021/12/25 00:06:50;;;;;;;16.33;12.50;;;4.90;99.90;;;;;;4871830;29;20032;-89
2021/12/25 00:09:25;;;;;;;15.63;12.23;;;4.80;99.90;;;;;;4828901;29;20025;-89
2021/12/25 00:11:54;;;;;;;16.05;12.10;;;4.90;99.90;;;;;;4878584;29;20076;-88
2021/12/25 00:14:23;;;;;;;17.48;12.82;;;4.90;99.90;;;;;;4875893;29;20033;-88
2021/12/25 00:16:53;;;;;;;17.52;12.77;;;4.80;99.90;;;;;;4893554;29;20248;-88
2021/12/25 00:19:24;;;;;;;16.13;11.88;;;4.80;99.90;;;;;;4894621;29;20028;-88
2021/12/25 00:21:51;;;;;;;16.67;12.02;;;4.80;99.90;;;;;;4877443;29;20520;-88
2021/12/25 00:24:18;;;;;;;17.25;12.38;;;4.80;99.90;;;;;;4863280;29;20063;-88
2021/12/25 00:27:20;;;;;;;17.48;12.15;;;4.70;99.90;;;;;;4877303;29;20033;-87
2021/12/25 00:29:55;;;;;;;17.50;12.35;;;4.70;99.90;;;;;;4894770;29;20028;-89
2021/12/25 00:32:42;;;;;;;17.00;12.45;;;4.70;99.90;;;;;;4879040;29;20431;-87
2021/12/25 00:35:11;;;;;;;19.88;12.73;;;4.70;99.90;;;;;;4854046;29;20029;-88
2021/12/25 00:37:37;;;;;;;18.33;12.43;;;4.60;99.90;;;;;;4854431;29;20166;-88
2021/12/25 00:40:07;;;;;;;19.30;13.18;;;4.60;99.90;;;;;;4838742;29;20081;-88
2021/12/25 00:42:38;;;;;;;17.02;12.00;;;4.60;99.90;;;;;;4855178;29;20493;-88
2021/12/25 00:45:07;;;;;;;19.33;13.25;;;4.50;99.90;;;;;;4841291;29;20050;-89
2021/12/25 00:47:35;;;;;;;16.95;11.57;;;4.50;99.90;;;;;;4845005;29;20049;-89
2021/12/25 00:50:02;;;;;;;16.38;11.38;;;4.50;99.90;;;;;;4843867;29;20065;-88
2021/12/25 00:52:27;;;;;;;15.90;11.35;;;4.50;99.90;;;;;;4860491;29;20026;-88
2021/12/25 00:54:54;;;;;;;15.48;11.35;;;4.50;99.90;;;;;;4861286;29;20046;-88
2021/12/25 00:57:19;;;;;;;15.45;10.55;;;4.40;99.90;;;;;;4861296;29;20017;-88
2021/12/25 00:59:53;;;;;;;14.38;10.30;;;4.50;99.90;;;;;;4825223;29;20043;-88
2021/12/25 01:02:19;;;;;;;15.35;10.80;;;4.40;99.90;;;;;;4854392;29;20060;-88
2021/12/25 01:04:45;;;;;;;13.35;9.27;;;4.40;99.90;;;;;;4838684;29;20558;-88
2021/12/25 01:07:12;;;;;;;14.32;10.13;;;4.40;99.90;;;;;;4891397;29;20065;-88
2021/12/25 01:09:40;;;;;;;13.48;9.60;;;4.30;99.90;;;;;;4877109;29;20028;-88
2021/12/25 01:12:08;;;;;;;13.88;9.40;;;4.40;99.90;;;;;;4878891;29;20127;-88
2021/12/25 01:14:41;;;;;;;13.80;10.13;;;4.30;99.90;;;;;;4880105;29;20036;-89
2021/12/25 01:17:24;;;;;;;13.73;9.82;;;4.30;99.90;;;;;;4898046;29;20576;-89
2021/12/25 01:25:59;;;;;;;17.02;11.65;;;4.10;99.90;;;;;;4882322;29;20056;-88
2021/12/25 01:34:11;;;;;;;16.40;11.85;;;3.90;99.90;;;;;;4897271;29;20037;-88
2021/12/25 01:36:54;;;;;;;17.38;12.30;;;3.80;99.90;;;;;;4905397;29;20040;-88
2021/12/25 01:39:47;;;;;;;18.45;13.55;;;3.80;99.90;;;;;;4873674;29;20037;-89
2021/12/25 01:47:51;;;;;;;21.65;15.70;;;3.60;99.90;;;;;;4897128;29;20475;-89
2021/12/25 01:50:23;;;;;;;19.83;14.50;;;3.60;99.90;;;;;;4879842;29;20058;-89
2021/12/25 01:52:50;;;;;;;22.20;15.95;;;3.50;99.90;;;;;;4892427;29;20123;-88
2021/12/25 01:55:24;;;;;;;22.52;16.60;;;3.50;99.90;;;;;;4880541;29;20136;-89
2021/12/25 01:57:54;;;;;;;23.23;15.95;;;3.40;99.90;;;;;;4890114;29;20068;-88
2021/12/25 02:00:39;;;;;;;25.80;18.20;;;3.40;99.90;;;;;;4879472;29;20036;-89
2021/12/25 02:03:10;;;;;;;24.55;17.52;;;3.40;99.90;;;;;;4866771;29;20047;-88
2021/12/25 02:05:37;;;;;;;25.88;18.30;;;3.30;99.90;;;;;;4904751;29;20028;-89
2021/12/25 02:08:03;;;;;;;25.05;17.58;;;3.30;99.90;;;;;;4902849;29;20390;-89
2021/12/25 02:10:29;;;;;;;24.75;17.23;;;3.30;99.90;;;;;;4878973;29;20534;-89
2021/12/25 02:12:55;;;;;;;28.75;19.40;;;3.30;99.90;;;;;;4879520;29;20024;-89
2021/12/25 02:15:26;;;;;;;28.52;19.42;;;3.20;99.90;;;;;;4878678;29;20063;-89
2021/12/25 02:20:38;;;;;;;29.50;20.17;;;3.20;99.90;;;;;;4881623;29;20048;-87
2021/12/25 02:23:21;;;;;;;29.20;19.80;;;3.20;99.90;;;;;;4879720;29;20382;-90
2021/12/25 02:25:48;;;;;;;31.08;20.67;;;3.20;99.90;;;;;;4896576;29;20024;-89
2021/12/25 02:28:16;;;;;;;29.88;20.85;;;3.10;99.90;;;;;;4870605;29;20043;-88
2021/12/25 02:30:45;;;;;;;30.40;21.85;;;3.10;99.90;;;;;;4882062;29;20036;-88
2021/12/25 02:33:11;;;;;;;36.70;22.38;;;3.10;99.90;;;;;;4865671;29;20081;-88
2021/12/25 02:35:37;;;;;;;32.75;21.60;;;3.10;99.90;;;;;;4882923;29;20033;-87
2021/12/25 02:38:05;;;;;;;32.85;22.40;;;3.10;99.90;;;;;;4869488;29;20033;-89
2021/12/25 02:40:34;;;;;;;30.00;22.38;;;3.10;99.90;;;;;;4886272;29;20021;-88
2021/12/25 02:43:00;;;;;;;30.60;20.73;;;3.00;99.90;;;;;;4871769;29;20033;-85
2021/12/25 02:45:27;;;;;;;30.05;21.20;;;3.00;99.90;;;;;;4876010;29;20089;-88
2021/12/25 02:47:55;;;;;;;31.25;21.90;;;3.10;99.90;;;;;;4865680;29;20045;-88
2021/12/25 02:50:34;;;;;;;33.75;21.90;;;3.00;99.90;;;;;;4865889;29;20029;-88
2021/12/25 02:53:02;;;;;;;35.25;23.23;;;3.00;99.90;;;;;;4866316;29;20431;-89
2021/12/25 02:55:31;;;;;;;33.05;22.15;;;2.90;99.90;;;;;;4849972;29;20478;-88
2021/12/25 02:57:58;;;;;;;31.58;21.17;;;2.90;99.90;;;;;;4881788;29;20529;-87
2021/12/25 03:00:29;;;;;;;35.80;23.45;;;2.90;99.90;;;;;;4864267;29;20478;-89
2021/12/25 03:02:57;;;;;;;33.17;21.90;;;2.80;99.90;;;;;;4881874;29;20036;-88
2021/12/25 03:05:24;;;;;;;33.83;22.00;;;2.90;99.90;;;;;;4882698;29;20036;-88
2021/12/25 03:07:51;;;;;;;35.00;22.52;;;2.80;99.90;;;;;;4852013;29;20054;-88
2021/12/25 03:10:20;;;;;;;28.88;19.35;;;2.90;99.90;;;;;;4889036;29;20033;-87
2021/12/25 03:15:41;;;;;;;32.53;21.15;;;2.90;99.90;;;;;;4880918;29;20117;-88
2021/12/25 03:18:07;;;;;;;33.03;20.70;;;2.80;99.90;;;;;;4865010;29;20073;-88
2021/12/25 03:20:36;;;;;;;33.13;20.52;;;2.90;99.90;;;;;;4880876;29;20041;-88
2021/12/25 03:23:04;;;;;;;29.27;19.42;;;2.90;99.90;;;;;;4881374;29;20116;-88
2021/12/25 03:25:33;;;;;;;34.65;20.88;;;2.90;99.90;;;;;;4864315;29;20021;-88
2021/12/25 03:27:58;;;;;;;31.08;19.95;;;2.90;99.90;;;;;;4849381;29;20033;-87
2021/12/25 03:30:25;;;;;;;32.92;19.90;;;2.80;99.90;;;;;;4882771;29;20165;-87
2021/12/25 03:32:50;;;;;;;29.90;19.35;;;2.80;99.90;;;;;;4882896;29;20051;-88
2021/12/25 03:35:16;;;;;;;32.10;20.30;;;2.80;99.90;;;;;;4875344;29;20124;-88
2021/12/25 03:37:42;;;;;;;32.50;20.52;;;2.80;99.90;;;;;;4882906;29;20039;-89
2021/12/25 03:40:09;;;;;;;30.40;19.75;;;2.70;99.90;;;;;;4900423;29;20021;-89
2021/12/25 03:42:36;;;;;;;30.95;19.92;;;2.70;99.90;;;;;;4900736;29;20032;-88
2021/12/25 03:45:03;;;;;;;29.73;18.45;;;2.60;99.90;;;;;;4883594;29;20024;-88
2021/12/25 03:47:40;;;;;;;28.38;18.17;;;2.60;99.90;;;;;;4877033;29;20041;-88
2021/12/25 03:58:26;;;;;;;24.20;16.00;;;2.40;99.90;;;;;;4899381;29;20043;-87
2021/12/25 04:00:59;;;;;;;22.63;15.00;;;2.40;99.90;;;;;;4879553;29;20060;-87
2021/12/25 04:03:49;;;;;;;26.27;17.33;;;2.40;99.90;;;;;;4881975;29;20032;-87
2021/12/25 04:06:15;;;;;;;25.70;16.35;;;2.40;99.90;;;;;;4895120;29;20374;-87
2021/12/25 04:08:44;;;;;;;26.00;15.40;;;2.40;99.90;;;;;;4881572;29;20043;-87
2021/12/25 04:11:30;;;;;;;25.35;16.35;;;2.40;99.90;;;;;;4896858;29;20040;-88
2021/12/25 04:13:56;;;;;;;24.02;15.38;;;2.40;99.90;;;;;;4881176;29;20504;-88
2021/12/25 04:16:26;;;;;;;23.35;15.20;;;2.40;99.90;;;;;;4878335;29;20045;-88
2021/12/25 04:18:53;;;;;;;21.25;14.57;;;2.30;99.90;;;;;;4879060;29;20030;-88
2021/12/25 04:21:19;;;;;;;23.20;14.68;;;2.30;99.90;;;;;;4878385;29;20036;-88
2021/12/25 04:23:47;;;;;;;22.23;14.45;;;2.30;99.90;;;;;;4878937;29;20040;-87
2021/12/25 04:26:13;;;;;;;22.02;14.52;;;2.30;99.90;;;;;;4862878;29;20033;-87
2021/12/25 05:01:42;;;;;;;18.10;12.05;;;2.00;99.90;;;;;;4884739;29;20076;-87
2021/12/25 05:04:16;;;;;;;15.90;10.23;;;1.80;99.90;;;;;;4883366;29;20043;-87
2021/12/25 05:06:42;;;;;;;14.35;9.40;;;1.80;99.90;;;;;;4882789;29;20025;-87
2021/12/25 05:09:08;;;;;;;13.50;8.90;;;1.80;99.90;;;;;;4883471;29;20032;-87
2021/12/25 05:11:34;;;;;;;11.65;8.45;;;1.80;99.90;;;;;;4882013;29;20039;-87
2021/12/25 05:14:00;;;;;;;12.15;8.05;;;1.80;99.90;;;;;;4866628;29;20029;-87
2021/12/25 05:16:27;;;;;;;10.95;7.63;;;1.70;99.90;;;;;;4888194;29;20055;-87
2021/12/25 05:18:53;;;;;;;9.68;7.22;;;1.60;99.90;;;;;;4869875;29;20491;-87
2021/12/25 05:21:25;;;;;;;10.27;6.28;;;1.60;99.90;;;;;;4869492;29;20052;-87
2021/12/25 05:23:52;;;;;;;10.68;7.50;;;1.60;99.90;;;;;;4885215;29;20056;-87
2021/12/25 05:26:19;;;;;;;8.25;6.07;;;1.50;99.90;;;;;;4854937;29;20035;-87
2021/12/25 05:28:56;;;;;;;9.32;6.13;;;1.40;99.90;;;;;;4884659;29;20041;-87
2021/12/25 05:31:22;;;;;;;9.43;5.65;;;1.40;99.90;;;;;;4871322;29;20043;-87
2021/12/25 05:33:50;;;;;;;8.38;5.68;;;1.40;99.90;;;;;;4885565;29;20032;-87
2021/12/25 05:36:17;;;;;;;10.32;5.32;;;1.40;99.90;;;;;;4884644;29;20051;-87
2021/12/25 05:38:43;;;;;;;7.90;4.50;;;1.40;99.90;;;;;;4885250;29;20029;-87
2021/12/25 05:41:11;;;;;;;7.32;4.53;;;1.30;99.90;;;;;;4884831;29;20041;-87
2021/12/25 05:43:38;;;;;;;7.25;4.30;;;1.30;99.90;;;;;;4903626;29;20425;-86
2021/12/25 05:46:06;;;;;;;6.78;4.00;;;1.30;99.90;;;;;;4906002;29;20029;-87
2021/12/25 05:48:35;;;;;;;8.00;4.40;;;1.20;99.90;;;;;;4869761;29;20469;-86
2021/12/25 05:51:05;;;;;;;5.10;3.20;;;1.20;99.90;;;;;;4884722;29;20035;-87
2021/12/25 05:53:32;;;;;;;7.15;3.60;;;1.20;99.90;;;;;;4884537;29;20017;-87
2021/12/25 05:55:58;;;;;;;5.00;3.33;;;1.20;99.90;;;;;;4869394;29;20072;-87
2021/12/25 05:58:25;;;;;;;6.95;3.58;;;1.10;99.90;;;;;;4869013;29;20033;-87
2021/12/25 06:00:51;;;;;;;6.60;3.10;;;1.10;99.90;;;;;;4869008;29;20033;-87
2021/12/25 06:03:17;;;;;;;5.53;3.28;;;1.10;99.90;;;;;;4884473;29;20557;-87
2021/12/25 06:05:43;;;;;;;6.80;3.42;;;1.00;99.90;;;;;;4869342;29;20595;-87
2021/12/25 06:08:08;;;;;;;6.32;3.75;;;1.00;99.90;;;;;;4868731;29;20040;-87
2021/12/25 06:10:35;;;;;;;5.22;3.38;;;0.90;99.90;;;;;;4868560;29;20062;-87
2021/12/25 06:13:02;;;;;;;5.38;3.80;;;1.00;99.90;;;;;;4901143;29;20025;-87
2021/12/25 06:15:30;;;;;;;6.63;4.43;;;0.90;99.90;;;;;;4884111;29;20040;-87
2021/12/25 06:17:56;;;;;;;8.00;4.32;;;0.80;99.90;;;;;;4881189;29;20084;-87
2021/12/25 06:20:23;;;;;;;7.85;4.68;;;0.80;99.90;;;;;;4881384;29;20092;-86
2021/12/25 06:22:51;;;;;;;5.78;3.95;;;0.70;99.90;;;;;;4881780;29;20060;-88
2021/12/25 06:25:18;;;;;;;7.88;4.35;;;0.70;99.90;;;;;;4887456;29;20025;-87
2021/12/25 06:27:46;;;;;;;7.30;4.65;;;0.70;99.90;;;;;;4903992;29;20085;-86
2021/12/25 06:30:13;;;;;;;6.57;4.28;;;0.70;99.90;;;;;;4904276;29;20032;-87
2021/12/25 06:32:42;;;;;;;8.32;4.28;;;0.70;99.90;;;;;;4898811;29;20423;-88
2021/12/25 06:35:09;;;;;;;7.10;5.03;;;0.70;99.90;;;;;;4853278;29;20033;-87
2021/12/25 06:37:36;;;;;;;7.47;4.90;;;0.60;99.90;;;;;;4881997;29;20036;-88
2021/12/25 06:40:05;;;;;;;7.65;5.00;;;0.70;99.90;;;;;;4882124;29;20033;-87
2021/12/25 06:42:31;;;;;;;8.18;5.13;;;0.70;99.90;;;;;;4882441;29;20037;-88
2021/12/25 06:44:59;;;;;;;7.82;5.07;;;0.70;99.90;;;;;;4882592;29;20124;-87
2021/12/25 06:47:25;;;;;;;7.93;5.40;;;0.60;99.90;;;;;;4880823;29;20017;-87
2021/12/25 06:49:52;;;;;;;6.93;4.68;;;0.60;99.90;;;;;;4865304;29;20043;-87
2021/12/25 06:52:19;;;;;;;8.20;4.97;;;0.50;99.90;;;;;;4880890;29;20108;-88
2021/12/25 06:54:47;;;;;;;6.65;4.80;;;0.50;99.90;;;;;;4881120;29;20508;-87
2021/12/25 06:57:15;;;;;;;7.75;4.80;;;0.40;99.90;;;;;;4881242;29;20041;-87
2021/12/25 06:59:43;;;;;;;7.30;5.50;;;0.40;99.90;;;;;;4881433;29;20117;-88
2021/12/25 07:02:19;;;;;;;7.78;5.50;;;0.40;99.90;;;;;;4881004;29;20061;-87
2021/12/25 07:04:45;;;;;;;8.57;5.15;;;0.40;99.90;;;;;;4866136;29;20037;-87
2021/12/25 07:07:15;;;;;;;8.85;5.28;;;0.40;99.90;;;;;;4865624;29;20033;-88
2021/12/25 07:09:50;;;;;;;8.18;5.25;;;0.30;99.90;;;;;;4852949;29;20109;-87
2021/12/25 07:12:16;;;;;;;7.68;5.40;;;0.30;99.90;;;;;;4885175;29;20061;-87
2021/12/25 07:14:43;;;;;;;7.25;4.70;;;0.20;99.90;;;;;;4881786;29;20060;-88
2021/12/25 07:17:09;;;;;;;7.70;5.15;;;0.20;99.90;;;;;;4880608;29;20049;-88
2021/12/25 07:19:40;;;;;;;7.53;5.47;;;0.20;99.90;;;;;;4883135;29;20503;-87
2021/12/25 07:22:07;;;;;;;7.85;5.30;;;0.20;99.90;;;;;;4880881;29;20033;-89
2021/12/25 07:24:33;;;;;;;9.48;5.55;;;0.20;99.90;;;;;;4865487;29;20560;-86
2021/12/25 07:27:08;;;;;;;8.82;5.18;;;0.20;99.90;;;;;;4879820;29;20037;-87
2021/12/25 07:29:37;;;;;;;7.03;4.43;;;0.30;99.90;;;;;;4864370;29;20147;-86
2021/12/25 07:32:09;;;;;;;7.50;4.90;;;0.10;99.90;;;;;;4865573;29;20029;-88
2021/12/25 07:34:36;;;;;;;7.30;5.20;;;0.20;99.90;;;;;;4880299;29;20052;-87
2021/12/25 07:37:05;;;;;;;7.38;5.30;;;0.10;99.90;;;;;;4879731;29;20037;-87
2021/12/25 07:39:31;;;;;;;7.07;4.63;;;0.00;99.90;;;;;;4879395;29;20462;-88
2021/12/25 07:41:57;;;;;;;8.68;5.45;;;0.00;99.90;;;;;;4864835;29;20040;-88
2021/12/25 07:44:26;;;;;;;10.00;4.93;;;0.00;99.90;;;;;;4879803;29;20051;-88
2021/12/25 07:46:55;;;;;;;10.23;5.43;;;-0.10;99.90;;;;;;4879896;29;20518;-87
2021/12/25 07:49:28;;;;;;;10.38;5.93;;;-0.10;99.90;;;;;;4879950;29;20490;-87
2021/12/25 07:51:54;;;;;;;7.82;4.95;;;-0.10;99.90;;;;;;4881010;29;20021;-88
2021/12/25 07:54:23;;;;;;;7.30;5.22;;;-0.20;99.90;;;;;;4881266;29;20029;-89
2021/12/25 07:56:49;;;;;;;7.15;4.57;;;-0.20;99.90;;;;;;4880298;29;20029;-85
2021/12/25 07:59:20;;;;;;;6.78;5.00;;;-0.30;99.90;;;;;;4864880;29;20038;-88
2021/12/25 08:02:13;;;;;;;6.38;4.65;;;-0.30;99.90;;;;;;4879573;29;20037;-88
2021/12/25 08:04:40;;;;;;;7.13;4.88;;;-0.30;99.90;;;;;;4879559;29;20056;-88
2021/12/25 08:07:06;;;;;;;9.43;5.30;;;-0.30;99.90;;;;;;4872326;29;20025;-88
2021/12/25 08:09:35;;;;;;;6.60;4.75;;;-0.40;99.90;;;;;;4881180;29;20225;-87
2021/12/25 08:12:02;;;;;;;7.32;5.30;;;-0.40;99.90;;;;;;4879933;29;20021;-87
2021/12/25 08:14:41;;;;;;;8.45;5.22;;;-0.40;99.90;;;;;;4880356;29;20112;-90
2021/12/25 08:17:09;;;;;;;8.85;5.53;;;-0.40;99.90;;;;;;4879672;29;20053;-86
2021/12/25 08:19:35;;;;;;;6.82;4.70;;;-0.40;99.90;;;;;;4880497;29;20029;-86
2021/12/25 08:22:05;;;;;;;8.02;5.43;;;-0.50;99.90;;;;;;4878239;29;20048;-87
2021/12/25 08:24:30;;;;;;;8.25;5.35;;;-0.40;99.90;;;;;;4879597;29;20120;-87
2021/12/25 08:27:05;;;;;;;9.25;5.28;;;-0.50;99.90;;;;;;4880726;29;20021;-89
2021/12/25 08:29:39;;;;;;;7.13;5.07;;;-0.50;99.90;;;;;;4882984;29;20033;-87
2021/12/25 08:32:10;;;;;;;8.40;5.07;;;-0.60;99.90;;;;;;4892399;29;20072;-88
2021/12/25 08:34:38;;;;;;;6.55;4.70;;;-0.70;99.90;;;;;;4885986;29;20024;-87
2021/12/25 08:37:07;;;;;;;6.78;4.53;;;-0.70;99.90;;;;;;4898909;29;20052;-87
2021/12/25 08:39:37;;;;;;;8.43;4.30;;;-0.70;99.90;;;;;;4848355;29;20041;-86
2021/12/25 08:42:09;;;;;;;6.47;4.53;;;-0.70;99.90;;;;;;4874435;29;20040;-86
2021/12/25 08:44:41;;;;;;;6.18;3.72;;;-0.70;99.90;;;;;;4876420;29;20128;-86
2021/12/25 08:47:15;;;;;;;5.30;3.70;;;-0.80;99.90;;;;;;4870585;29;20032;-86
2021/12/25 08:49:43;;;;;;;5.93;3.80;;;-0.70;99.90;;;;;;4879529;29;20078;-88
2021/12/25 08:52:14;;;;;;;6.30;3.90;;;-0.70;99.90;;;;;;4877925;29;20130;-85
2021/12/25 08:54:41;;;;;;;5.80;3.40;;;-0.80;99.90;;;;;;4861508;29;20355;-86
2021/12/25 08:57:11;;;;;;;5.45;2.60;;;-0.80;99.90;;;;;;4876678;29;20029;-87
2021/12/25 08:59:39;;;;;;;4.35;2.45;;;-0.80;99.90;;;;;;4862063;29;20482;-87
2021/12/25 09:02:09;;;;;;;4.25;2.50;;;-0.80;99.90;;;;;;4877063;29;20120;-86
2021/12/25 09:04:41;;;;;;;5.45;2.53;;;-0.80;99.90;;;;;;4876848;29;20034;-88
2021/12/25 09:07:07;;;;;;;3.50;1.92;;;-0.80;99.90;;;;;;4861515;29;20039;-86
2021/12/25 09:09:36;;;;;;;5.60;2.50;;;-0.70;99.90;;;;;;4877992;29;20040;-85
2021/12/25 09:12:09;;;;;;;3.55;2.10;;;-0.30;99.90;;;;;;4877473;29;20029;-85
2021/12/25 09:14:39;;;;;;;4.70;2.00;;;0.00;99.90;;;;;;4877387;29;20378;-85
2021/12/25 09:17:12;;;;;;;3.65;1.83;;;0.00;99.90;;;;;;4875844;29;20060;-86
2021/12/25 09:19:43;;;;;;;3.87;1.70;;;0.70;99.90;;;;;;4876699;29;20037;-87
2021/12/25 09:22:15;;;;;;;3.75;1.73;;;1.90;99.90;;;;;;4877750;29;20041;-86
2021/12/25 09:24:43;;;;;;;3.17;1.30;;;3.00;99.90;;;;;;4879477;29;20041;-87
2021/12/25 09:27:09;;;;;;;2.78;1.33;;;3.60;99.90;;;;;;4860759;29;20045;-87
2021/12/25 09:29:38;;;;;;;4.93;1.40;;;4.30;99.90;;;;;;4876497;29;20073;-86
2021/12/25 09:32:10;;;;;;;2.88;1.30;;;4.90;99.90;;;;;;4860825;29;20139;-87
2021/12/25 09:34:38;;;;;;;2.10;1.10;;;5.50;99.90;;;;;;4879683;29;20041;-86
2021/12/25 09:37:18;;;;;;;2.47;1.08;;;5.90;99.90;;;;;;4864008;29;20041;-89
2021/12/25 09:39:45;;;;;;;2.08;1.02;;;6.30;99.90;;;;;;4880290;29;20067;-87
2021/12/25 09:42:12;;;;;;;2.50;1.13;;;6.60;99.90;;;;;;4881101;29;20081;-87
2021/12/25 09:44:57;;;;;;;1.95;0.93;;;6.90;99.90;;;;;;4863933;29;20048;-89
2021/12/25 09:47:33;;;;;;;1.58;1.00;;;7.40;99.90;;;;;;4866141;29;20117;-86
2021/12/25 09:50:18;;;;;;;;;;;;;;;;;;;;;
2021/12/25 09:53:02;;;;;;;1.45;0.70;;;7.90;99.90;;;;;;4863760;29;20142;-86
2021/12/25 09:56:01;;;;;;;2.00;0.82;;;8.00;99.90;;;;;;4865114;29;20049;-87
2021/12/25 09:58:44;;;;;;;1.02;0.70;;;8.00;99.90;;;;;;4877541;29;20141;-86
2021/12/25 10:01:34;;;;;;;2.20;0.75;;;8.40;99.90;;;;;;4876894;29;20490;-86
2021/12/25 10:04:59;;;;;;;;;;;;;;;;;;;;;
2021/12/25 10:08:19;;;;;;;1.65;0.77;;;8.50;99.90;;;;;;4876736;29;20490;-87
2021/12/25 10:14:28;;;;;;;1.25;0.57;;;8.90;99.90;;;;;;4872470;29;20040;-87
2021/12/25 10:17:24;;;;;;;1.85;0.70;;;9.20;99.90;;;;;;4878726;29;20445;-87
2021/12/25 10:20:28;;;;;;;2.97;0.82;;;9.20;99.90;;;;;;4879201;29;20040;-86
2021/12/25 10:23:36;;;;;;;1.00;0.60;;;9.20;99.90;;;;;;4862569;29;20045;-87
2021/12/25 10:26:37;;;;;;;1.90;0.82;;;9.40;99.90;;;;;;4867153;29;20044;-87
2021/12/25 10:29:30;;;;;;;1.70;0.77;;;9.70;99.90;;;;;;4838790;29;20062;-86
2021/12/25 10:32:26;;;;;;;1.73;0.60;;;9.70;99.90;;;;;;4851652;29;20094;-86
2021/12/25 10:35:23;;;;;;;1.38;0.50;;;9.50;99.90;;;;;;4829397;29;20174;-87
2021/12/25 10:38:00;;;;;;;1.55;0.60;;;9.30;99.90;;;;;;4827425;29;20030;-87
2021/12/25 10:40:36;;;;;;;1.50;0.60;;;9.50;99.90;;;;;;4825011;29;20030;-87
2021/12/25 10:43:11;;;;;;;2.65;0.60;;;9.70;99.90;;;;;;4824558;29;20182;-89
2021/12/25 10:46:10;;;;;;;2.47;0.70;;;9.60;99.90;;;;;;4837361;29;20069;-88
2021/12/25 10:48:39;;;;;;;1.88;0.90;;;9.60;99.90;;;;;;4827540;29;20042;-84
2021/12/25 10:52:03;;;;;;;;;;;;;;;;;;;;;
2021/12/25 10:55:06;;;;;;;1.95;0.70;;;9.90;99.90;;;;;;4829524;29;20056;-87
2021/12/25 11:01:00;;;;;;;1.10;0.60;;;10.00;99.90;;;;;;4876527;29;20508;-86
2021/12/25 11:03:38;;;;;;;1.17;0.50;;;10.30;99.90;;;;;;4877656;29;20041;-87
2021/12/25 11:06:34;;;;;;;2.75;0.73;;;10.60;99.90;;;;;;4862177;29;20029;-86
2021/12/25 11:09:26;;;;;;;1.55;0.70;;;10.40;99.90;;;;;;4877517;29;20482;-86
2021/12/25 11:12:18;;;;;;;1.23;0.52;;;10.50;99.90;;;;;;4866119;29;20058;-87
2021/12/25 11:14:45;;;;;;;1.35;0.77;;;10.60;99.90;;;;;;4877636;29;20029;-87
2021/12/25 11:17:33;;;;;;;2.83;0.57;;;10.70;99.90;;;;;;4880283;29;20048;-87
2021/12/25 11:20:16;;;;;;;0.88;0.55;;;11.00;99.90;;;;;;4896778;29;20362;-86
2021/12/25 11:23:16;;;;;;;2.10;0.80;;;11.30;99.90;;;;;;4866108;29;20056;-86
2021/12/25 11:25:46;;;;;;;1.58;0.70;;;11.10;99.90;;;;;;4878437;29;20033;-86
2021/12/25 11:28:18;;;;;;;2.47;0.90;;;10.60;99.90;;;;;;4880142;29;20493;-87
2021/12/25 11:30:50;;;;;;;1.27;0.60;;;10.40;99.90;;;;;;4880497;29;20485;-85
2021/12/25 11:33:23;;;;;;;2.80;0.77;;;10.30;99.90;;;;;;4864405;29;20040;-87
2021/12/25 11:35:55;;;;;;;;;;;10.10;99.90;;;;;;4865141;29;20092;-86
2021/12/25 11:38:23;;;;;;;1.50;0.70;;;10.10;99.90;;;;;;4897236;29;19950;-87
2021/12/25 11:41:03;;;;;;;1.40;0.60;;;10.30;99.90;;;;;;4865049;29;20438;-87
2021/12/25 11:44:05;;;;;;;1.52;0.68;;;10.00;99.90;;;;;;4880496;29;20492;-88
2021/12/25 11:47:08;;;;;;;1.23;0.55;;;9.10;99.90;;;;;;4895228;29;20112;-87
2021/12/25 11:50:04;;;;;;;1.77;0.70;;;7.10;99.90;;;;;;4880691;29;20044;-86
2021/12/25 11:52:49;;;;;;;2.15;0.77;;;5.70;99.90;;;;;;4877471;29;20124;-86
2021/12/25 11:58:36;;;;;;;1.27;0.52;;;3.90;99.90;;;;;;4897346;29;20039;-87
2021/12/25 12:01:46;;;;;;;1.13;0.52;;;3.50;99.90;;;;;;4880714;29;20032;-87
2021/12/25 12:04:31;;;;;;;1.35;0.40;;;3.20;99.90;;;;;;4887305;29;20044;-85
2021/12/25 12:07:18;;;;;;;2.50;0.85;;;3.10;99.90;;;;;;4897155;29;20100;-86
2021/12/25 12:09:44;;;;;;;1.25;0.70;;;2.80;99.90;;;;;;4893987;29;20040;-85
2021/12/25 12:12:20;;;;;;;1.45;0.50;;;2.60;99.90;;;;;;4897068;29;20051;-86
2021/12/25 12:15:21;;;;;;;1.15;0.60;;;2.50;99.90;;;;;;4881766;29;20096;-86
2021/12/25 12:17:48;;;;;;;1.88;0.60;;;2.40;99.90;;;;;;4881591;29;20148;-87
2021/12/25 12:20:36;;;;;;;1.30;0.50;;;2.30;99.90;;;;;;4894863;29;20032;-86
2021/12/25 12:26:35;;;;;;;1.92;0.60;;;2.20;99.90;;;;;;4917555;29;20044;-86
2021/12/25 12:29:02;;;;;;;1.40;0.60;;;2.20;99.90;;;;;;4901168;29;20041;-84
2021/12/25 12:31:42;;;;;;;0.52;0.40;;;2.10;99.90;;;;;;4881161;29;20044;-87
2021/12/25 12:34:44;;;;;;;1.75;0.80;;;2.00;99.90;;;;;;4880541;29;20506;-86
2021/12/25 12:37:33;;;;;;;1.10;0.70;;;2.00;99.90;;;;;;4896961;29;20040;-87
2021/12/25 12:40:13;;;;;;;2.03;0.80;;;2.00;99.90;;;;;;4880261;29;20084;-87
2021/12/25 12:42:46;;;;;;;1.25;0.60;;;1.90;99.90;;;;;;4898067;29;20120;-86
2021/12/25 12:45:23;;;;;;;1.48;0.80;;;2.00;99.90;;;;;;4880265;29;20044;-87
2021/12/25 12:48:15;;;;;;;2.45;0.70;;;1.90;99.90;;;;;;4879920;29;20047;-86
2021/12/25 12:50:53;;;;;;;1.17;0.50;;;1.80;99.90;;;;;;4879736;29;20442;-85
2021/12/25 12:53:21;;;;;;;3.33;0.70;;;1.80;99.90;;;;;;4879117;29;20446;-86
2021/12/25 12:56:04;;;;;;;1.88;0.50;;;1.80;99.90;;;;;;4879835;29;20374;-86
2021/12/25 12:58:32;;;;;;;4.28;1.02;;;1.80;99.90;;;;;;4879849;29;20036;-88
2021/12/25 13:01:13;;;;;;;1.75;0.77;;;1.70;99.90;;;;;;4879801;29;20565;-85
2021/12/25 13:03:39;;;;;;;2.03;1.13;;;1.70;99.90;;;;;;4879645;29;20386;-85
2021/12/25 13:06:13;;;;;;;1.70;0.80;;;1.70;99.90;;;;;;4898000;29;20088;-85
2021/12/25 13:08:46;;;;;;;1.65;0.80;;;1.60;99.90;;;;;;4867140;29;20029;-85
2021/12/25 13:11:27;;;;;;;1.80;0.68;;;1.60;99.90;;;;;;4883790;29;20032;-84
2021/12/25 13:14:01;;;;;;;1.38;0.70;;;1.50;99.90;;;;;;4883184;29;20036;-84
2021/12/25 13:16:43;;;;;;;2.45;0.65;;;1.50;99.90;;;;;;4883112;29;20508;-85
2021/12/25 13:19:10;;;;;;;2.03;0.77;;;1.40;99.90;;;;;;4884745;29;20041;-85
2021/12/25 13:21:55;;;;;;;2.45;0.70;;;1.40;99.90;;;;;;4902064;29;20489;-84
2021/12/25 13:24:21;;;;;;;1.58;0.70;;;1.40;99.90;;;;;;4887784;29;20029;-85
2021/12/25 13:26:52;;;;;;;2.05;0.68;;;1.30;99.90;;;;;;4882834;29;20028;-86
2021/12/25 13:29:22;;;;;;;2.78;0.98;;;1.30;99.90;;;;;;4881944;29;20028;-85
2021/12/25 13:31:48;;;;;;;1.45;0.63;;;1.20;99.90;;;;;;4884226;29;20031;-87
2021/12/25 13:34:25;;;;;;;2.45;0.88;;;1.30;99.90;;;;;;4885226;29;20032;-86
2021/12/25 13:36:59;;;;;;;3.28;1.00;;;1.50;99.90;;;;;;4877850;29;20029;-85
2021/12/25 13:39:29;;;;;;;2.13;0.70;;;2.30;99.90;;;;;;4876996;29;20144;-87
2021/12/25 13:42:06;;;;;;;2.03;0.93;;;2.90;99.90;;;;;;4878492;29;20039;-86
2021/12/25 13:44:47;;;;;;;;;;;;;;;;;;;;;
2021/12/25 13:47:28;;;;;;;2.00;0.70;;;2.60;99.90;;;;;;4895393;29;20027;-88
2021/12/25 13:50:00;;;;;;;1.95;0.70;;;2.20;99.90;;;;;;4877655;29;20041;-87
2021/12/25 13:52:36;;;;;;;1.95;0.85;;;1.90;99.90;;;;;;4880584;29;20759;-86
2021/12/25 13:55:23;;;;;;;2.55;0.93;;;1.70;99.90;;;;;;4895174;29;20037;-87
2021/12/25 13:57:55;;;;;;;2.03;0.80;;;1.50;99.90;;;;;;4877297;29;20726;-87
2021/12/25 14:00:27;;;;;;;2.67;0.90;;;1.40;99.90;;;;;;4895268;29;20029;-86
2021/12/25 14:03:02;;;;;;;3.20;1.48;;;1.30;99.90;;;;;;4878398;29;20047;-87
2021/12/25 14:05:37;;;;;;;1.48;0.60;;;1.20;99.90;;;;;;4879037;29;20505;-85
2021/12/25 14:08:06;;;;;;;1.85;0.90;;;1.10;99.90;;;;;;4880847;29;20029;-85
2021/12/25 14:10:34;;;;;;;1.58;0.47;;;1.10;99.90;;;;;;4913372;29;20029;-86
2021/12/25 14:13:03;;;;;;;1.35;0.68;;;1.10;99.90;;;;;;4904223;29;20013;-86
2021/12/25 14:15:34;;;;;;;1.67;0.63;;;1.00;99.90;;;;;;4919231;29;20017;-87
2021/12/25 14:18:19;;;;;;;2.75;1.00;;;1.00;99.90;;;;;;4886544;29;20052;-86
2021/12/25 14:20:48;;;;;;;2.10;1.08;;;1.00;99.90;;;;;;4877997;29;20060;-86
2021/12/25 14:23:23;;;;;;;2.17;0.77;;;0.90;99.90;;;;;;4878620;29;20049;-86
2021/12/25 14:26:19;;;;;;;2.67;0.82;;;0.90;99.90;;;;;;4878274;29;20044;-86
2021/12/25 14:29:03;;;;;;;4.03;1.00;;;0.80;99.90;;;;;;4877207;29;20155;-87
2021/12/25 14:31:45;;;;;;;2.08;0.80;;;0.80;99.90;;;;;;4877460;29;20044;-87
2021/12/25 14:34:46;;;;;;;3.70;1.35;;;0.70;99.90;;;;;;4892877;29;20041;-88
2021/12/25 14:37:17;;;;;;;2.63;0.80;;;0.80;99.90;;;;;;4877782;29;20496;-87
2021/12/25 14:40:10;;;;;;;3.05;0.90;;;0.80;99.90;;;;;;4877485;29;20033;-86
2021/12/25 14:42:54;;;;;;;1.92;0.90;;;0.70;99.90;;;;;;4851561;29;20144;-87
2021/12/25 14:45:31;;;;;;;;;;;;;;;;;;;;;
2021/12/25 14:48:00;;;;;;;1.52;0.80;;;0.60;99.90;;;;;;4894584;29;20136;-86